createdAt,value
2022-08-20T00:00:11.177Z,1.38
2022-08-20T00:00:34.217Z,1.40
2022-08-20T00:00:51.431Z,1.80
2022-08-20T00:01:12.993Z,1.35
2022-08-20T00:01:24.727Z,1.48
2022-08-20T00:01:36.217Z,1.40
2022-08-20T00:01:47.719Z,1.20
2022-08-20T00:01:59.213Z,1.02
2022-08-20T00:02:11.118Z,1.17
2022-08-20T00:02:23.196Z,1.13
2022-08-20T00:02:44.561Z,0.93
2022-08-20T00:03:02.167Z,0.80
2022-08-20T00:03:28.859Z,0.82
2022-08-20T00:03:41.662Z,0.95
2022-08-20T00:03:56.290Z,1.90
2022-08-20T00:04:08.292Z,2.03
2022-08-20T00:04:20.347Z,1.40
2022-08-20T00:04:31.765Z,0.98
2022-08-20T00:04:43.499Z,1.02
2022-08-20T00:04:54.902Z,1.17
2022-08-20T00:05:06.661Z,1.15
2022-08-20T00:05:26.017Z,1.08
2022-08-20T00:05:42.113Z,1.35
2022-08-20T00:06:21.921Z,1.90
2022-08-20T00:06:33.892Z,1.15
2022-08-20T00:06:45.317Z,1.05
2022-08-20T00:06:56.714Z,0.95
2022-08-20T00:07:08.123Z,0.73
2022-08-20T00:07:19.522Z,0.80
2022-08-20T00:07:31.320Z,0.90
2022-08-20T00:08:09.198Z,0.95
2022-08-20T00:08:22.241Z,1.10
2022-08-20T00:08:34.249Z,1.00
2022-08-20T00:08:46.668Z,0.88
2022-08-20T00:08:58.089Z,0.90
2022-08-20T00:09:09.966Z,0.98
2022-08-20T00:09:21.748Z,0.95
2022-08-20T00:09:33.426Z,0.95
2022-08-20T00:09:48.221Z,0.80
2022-08-20T00:09:59.609Z,0.90
2022-08-20T00:10:12.161Z,1.00
2022-08-20T00:10:23.591Z,1.30
2022-08-20T00:10:37.348Z,1.20
2022-08-20T00:10:55.001Z,1.00
2022-08-20T00:11:10.688Z,0.80
2022-08-20T00:11:25.095Z,0.80
2022-08-20T00:11:36.710Z,0.75
2022-08-20T00:11:48.099Z,0.88
2022-08-20T00:11:59.726Z,1.00
2022-08-20T00:12:13.236Z,1.20
2022-08-20T00:12:24.660Z,1.33
2022-08-20T00:12:38.379Z,1.35
2022-08-20T00:12:55.710Z,1.10
2022-08-20T00:13:10.546Z,1.10
2022-08-20T00:13:38.175Z,1.00
2022-08-20T00:13:52.951Z,0.80
2022-08-20T00:14:06.648Z,0.98
2022-08-20T00:14:18.070Z,0.90
2022-08-20T00:14:29.531Z,0.93
2022-08-20T00:14:45.361Z,0.90
2022-08-20T00:14:56.804Z,0.75
2022-08-20T00:15:13.656Z,0.60
2022-08-20T00:15:31.734Z,0.80
2022-08-20T00:15:43.248Z,1.08
2022-08-20T00:15:56.092Z,1.23
2022-08-20T00:16:08.650Z,1.25
2022-08-20T00:16:23.325Z,1.05
2022-08-20T00:16:36.999Z,0.98
2022-08-20T00:16:48.639Z,1.00
2022-08-20T00:17:01.543Z,1.30
2022-08-20T00:17:12.946Z,1.52
2022-08-20T00:17:24.353Z,1.10
2022-08-20T00:17:39.257Z,1.08
2022-08-20T00:17:52.443Z,0.70
2022-08-20T00:18:05.416Z,0.82
2022-08-20T00:18:17.429Z,1.10
2022-08-20T00:18:29.217Z,1.10
2022-08-20T00:19:09.462Z,0.98
2022-08-20T00:19:20.867Z,1.15
2022-08-20T00:19:32.296Z,0.93
2022-08-20T00:19:43.718Z,0.95
2022-08-20T00:19:55.155Z,0.80
2022-08-20T00:20:09.498Z,0.90
2022-08-20T00:20:23.594Z,1.13
2022-08-20T00:20:39.427Z,1.20
2022-08-20T00:20:54.508Z,1.00
2022-08-20T00:21:09.844Z,1.25
2022-08-20T00:21:21.715Z,1.42
2022-08-20T00:21:35.278Z,1.25
2022-08-20T00:21:46.722Z,1.08
2022-08-20T00:21:58.650Z,1.00
2022-08-20T00:22:14.279Z,1.10
2022-08-20T00:22:25.956Z,1.00
2022-08-20T00:22:37.472Z,1.10
2022-08-20T00:22:49.374Z,1.30
2022-08-20T00:23:01.572Z,1.15
2022-08-20T00:23:14.181Z,1.20
2022-08-20T00:23:25.639Z,1.30
2022-08-20T00:23:39.457Z,1.17
2022-08-20T00:23:52.340Z,0.70
2022-08-20T00:24:04.481Z,1.02
2022-08-20T00:24:15.897Z,1.30
2022-08-20T00:24:27.332Z,1.52
2022-08-20T00:24:42.054Z,1.42
2022-08-20T00:24:53.501Z,1.30
2022-08-20T00:25:07.274Z,1.15
2022-08-20T00:25:19.815Z,1.30
2022-08-20T00:25:31.944Z,1.38
2022-08-20T00:25:45.542Z,1.38
2022-08-20T00:25:57.722Z,1.40
2022-08-20T00:26:10.422Z,1.27
2022-08-20T00:26:22.608Z,1.08
2022-08-20T00:26:34.097Z,1.10
2022-08-20T00:26:51.896Z,0.93
2022-08-20T00:27:17.364Z,0.90
2022-08-20T00:27:28.752Z,1.15
2022-08-20T00:27:40.196Z,1.20
2022-08-20T00:27:51.715Z,1.20
2022-08-20T00:28:04.009Z,1.02
2022-08-20T00:28:16.220Z,0.85
2022-08-20T00:28:27.647Z,0.98
2022-08-20T00:28:40.401Z,1.30
2022-08-20T00:28:52.433Z,1.38
2022-08-20T00:29:05.027Z,0.90
2022-08-20T00:29:16.439Z,1.10
2022-08-20T00:29:31.655Z,1.00
2022-08-20T00:29:43.185Z,1.00
2022-08-20T00:29:54.662Z,0.90
2022-08-20T00:30:08.468Z,0.93
2022-08-20T00:30:20.540Z,1.05
2022-08-20T00:30:31.948Z,1.08
2022-08-20T00:30:45.833Z,1.05
2022-08-20T00:30:57.325Z,1.30
2022-08-20T00:31:11.897Z,1.20
2022-08-20T00:31:24.229Z,1.05
2022-08-20T00:31:35.864Z,1.00
2022-08-20T00:31:50.659Z,1.10
2022-08-20T00:32:02.159Z,1.30
2022-08-20T00:32:13.808Z,1.25
2022-08-20T00:32:25.660Z,1.00
2022-08-20T00:32:56.629Z,0.90
2022-08-20T00:33:11.674Z,1.02
2022-08-20T00:33:23.809Z,1.13
2022-08-20T00:33:36.832Z,1.02
2022-08-20T00:33:49.034Z,1.20
2022-08-20T00:34:05.468Z,1.05
2022-08-20T00:34:17.378Z,0.88
2022-08-20T00:34:28.944Z,1.10
2022-08-20T00:34:40.325Z,1.10
2022-08-20T00:34:51.720Z,1.13
2022-08-20T00:35:03.236Z,1.13
2022-08-20T00:35:17.902Z,1.40
2022-08-20T00:35:33.646Z,1.30
2022-08-20T00:35:52.371Z,1.10
2022-08-20T00:36:04.750Z,1.25
2022-08-20T00:36:16.881Z,1.33
2022-08-20T00:36:32.137Z,1.30
2022-08-20T00:36:47.416Z,1.63
2022-08-20T00:36:58.883Z,1.73
2022-08-20T00:37:10.457Z,1.27
2022-08-20T00:37:21.925Z,1.17
2022-08-20T00:37:33.430Z,0.85
2022-08-20T00:37:44.876Z,0.88
2022-08-20T00:38:00.546Z,0.90
2022-08-20T00:38:12.705Z,1.23
2022-08-20T00:38:25.351Z,1.20
2022-08-20T00:38:41.248Z,1.63
2022-08-20T00:38:57.470Z,2.40
2022-08-20T00:39:08.854Z,2.03
2022-08-20T00:39:20.275Z,1.50
2022-08-20T00:39:31.803Z,1.42
2022-08-20T00:39:43.308Z,1.38
2022-08-20T00:39:54.779Z,1.40
2022-08-20T00:40:22.024Z,1.27
2022-08-20T00:40:41.886Z,0.80
2022-08-20T00:40:56.668Z,1.00
2022-08-20T00:41:15.994Z,1.10
2022-08-20T00:41:30.368Z,1.15
2022-08-20T00:41:41.984Z,1.40
2022-08-20T00:41:53.436Z,1.25
2022-08-20T00:42:07.502Z,1.05
2022-08-20T00:42:30.830Z,1.10
2022-08-20T00:42:46.450Z,1.52
2022-08-20T00:43:00.464Z,1.10
2022-08-20T00:43:37.886Z,1.20
2022-08-20T00:44:09.791Z,1.30
2022-08-20T00:44:22.631Z,1.50
2022-08-20T00:44:34.537Z,1.30
2022-08-20T00:44:47.102Z,1.10
2022-08-20T00:44:58.495Z,1.30
2022-08-20T00:45:11.147Z,1.42
2022-08-20T00:45:24.339Z,1.38
2022-08-20T00:45:36.055Z,1.30
2022-08-20T00:45:47.459Z,1.50
2022-08-20T00:46:02.368Z,1.40
2022-08-20T00:46:31.584Z,1.05
2022-08-20T00:46:45.274Z,1.05
2022-08-20T00:46:56.720Z,1.13
2022-08-20T00:47:08.149Z,1.45
2022-08-20T00:47:19.677Z,1.50
2022-08-20T00:47:31.087Z,1.35
2022-08-20T00:47:51.122Z,1.60
2022-08-20T00:48:04.187Z,1.75
2022-08-20T00:48:15.585Z,1.40
2022-08-20T00:48:30.661Z,1.25
2022-08-20T00:48:44.748Z,0.90
2022-08-20T00:48:57.165Z,0.80
2022-08-20T00:49:12.386Z,0.80
2022-08-20T00:49:28.269Z,1.00
2022-08-20T00:49:39.898Z,0.95
2022-08-20T00:49:51.416Z,0.80
2022-08-20T00:50:04.093Z,0.80
2022-08-20T00:50:20.186Z,0.80
2022-08-20T00:50:36.571Z,0.90
2022-08-20T00:50:48.831Z,1.25
2022-08-20T00:51:18.029Z,1.70
2022-08-20T00:51:37.654Z,1.13
2022-08-20T00:51:57.381Z,0.90
2022-08-20T00:52:08.714Z,1.13
2022-08-20T00:52:20.482Z,1.20
2022-08-20T00:52:32.958Z,1.17
2022-08-20T00:52:50.211Z,1.48
2022-08-20T00:53:04.226Z,2.28
2022-08-20T00:53:17.271Z,2.30
2022-08-20T00:53:28.931Z,1.60
2022-08-20T00:53:41.640Z,1.10
2022-08-20T00:54:01.264Z,1.02
2022-08-20T00:54:29.033Z,0.90
2022-08-20T00:54:59.496Z,1.00
2022-08-20T00:55:12.579Z,0.98
2022-08-20T00:55:29.720Z,1.00
2022-08-20T00:55:43.061Z,1.00
2022-08-20T00:55:55.771Z,1.00
2022-08-20T00:56:09.338Z,0.70
2022-08-20T00:56:21.135Z,0.95
2022-08-20T00:56:33.687Z,1.20
2022-08-20T00:56:51.519Z,1.40
2022-08-20T00:57:09.418Z,1.48
2022-08-20T00:57:55.769Z,1.73
2022-08-20T00:58:13.115Z,1.73
2022-08-20T00:58:24.766Z,1.58
2022-08-20T00:58:37.213Z,1.52
2022-08-20T00:58:49.840Z,1.20
2022-08-20T00:59:01.921Z,1.10
2022-08-20T00:59:20.996Z,1.00
2022-08-20T00:59:35.171Z,1.10
2022-08-20T00:59:49.640Z,1.10
2022-08-20T01:00:03.941Z,0.93
2022-08-20T01:00:22.760Z,0.90
2022-08-20T01:00:44.062Z,0.90
2022-08-20T01:00:56.576Z,1.10
2022-08-20T01:01:09.358Z,1.60
2022-08-20T01:01:21.373Z,1.50
2022-08-20T01:01:32.793Z,1.45
2022-08-20T01:02:01.187Z,1.50
2022-08-20T01:02:16.116Z,1.40
2022-08-20T01:02:30.238Z,1.33
2022-08-20T01:02:41.740Z,1.13
2022-08-20T01:02:53.808Z,1.10
2022-08-20T01:03:07.939Z,1.75
2022-08-20T01:03:20.973Z,1.63
2022-08-20T01:03:34.899Z,1.15
2022-08-20T01:03:46.524Z,1.02
2022-08-20T01:03:58.035Z,1.00
2022-08-20T01:04:10.077Z,1.23
2022-08-20T01:04:21.611Z,1.45
2022-08-20T01:04:34.486Z,1.40
2022-08-20T01:04:46.166Z,1.17
2022-08-20T01:04:58.248Z,1.02
2022-08-20T01:05:10.928Z,0.98
2022-08-20T01:05:24.614Z,0.90
2022-08-20T01:05:44.593Z,0.85
2022-08-20T01:05:56.226Z,1.00
2022-08-20T01:06:08.088Z,0.80
2022-08-20T01:06:19.466Z,0.90
2022-08-20T01:06:31.536Z,1.17
2022-08-20T01:06:43.108Z,1.13
2022-08-20T01:06:55.148Z,1.13
2022-08-20T01:07:07.401Z,1.10
2022-08-20T01:07:18.844Z,1.10
2022-08-20T01:07:31.219Z,0.98
2022-08-20T01:07:43.231Z,0.90
2022-08-20T01:07:55.303Z,0.90
2022-08-20T01:08:07.535Z,1.55
2022-08-20T01:08:22.591Z,1.67
2022-08-20T01:08:34.045Z,1.05
2022-08-20T01:08:45.534Z,0.88
2022-08-20T01:08:57.305Z,0.80
2022-08-20T01:09:09.318Z,0.88
2022-08-20T01:09:49.973Z,1.30
2022-08-20T01:09:59.190Z,0.85
2022-08-20T01:10:19.482Z,0.90
2022-08-20T01:10:37.319Z,0.90
2022-08-20T01:10:50.644Z,0.80
2022-08-20T01:11:02.095Z,0.70
2022-08-20T01:11:16.235Z,0.95
2022-08-20T01:11:29.674Z,1.00
2022-08-20T01:11:48.664Z,1.08
2022-08-20T01:12:01.491Z,1.02
2022-08-20T01:12:14.746Z,1.10
2022-08-20T01:12:28.821Z,1.00
2022-08-20T01:12:45.822Z,0.70
2022-08-20T01:12:59.629Z,0.60
2022-08-20T01:13:17.025Z,0.68
2022-08-20T01:13:28.486Z,0.70
2022-08-20T01:13:41.071Z,0.90
2022-08-20T01:13:53.643Z,1.10
2022-08-20T01:14:11.498Z,1.17
2022-08-20T01:14:24.323Z,1.00
2022-08-20T01:14:35.903Z,1.02
2022-08-20T01:14:47.575Z,1.10
2022-08-20T01:15:01.680Z,1.20
2022-08-20T01:15:16.127Z,1.30
2022-08-20T01:15:30.839Z,1.23
2022-08-20T01:15:45.673Z,1.00
2022-08-20T01:15:59.289Z,0.90
2022-08-20T01:16:19.901Z,1.17
2022-08-20T01:16:40.659Z,1.30
2022-08-20T01:16:55.688Z,0.70
2022-08-20T01:17:08.312Z,0.85
2022-08-20T01:17:23.187Z,1.00
2022-08-20T01:17:36.654Z,0.75
2022-08-20T01:17:52.036Z,0.98
2022-08-20T01:18:07.657Z,1.08
2022-08-20T01:18:23.741Z,1.10
2022-08-20T01:18:37.356Z,1.02
2022-08-20T01:18:55.820Z,0.85
2022-08-20T01:19:29.160Z,0.90
2022-08-20T01:19:52.408Z,1.17
2022-08-20T01:20:15.369Z,0.93
2022-08-20T01:20:39.376Z,0.90
2022-08-20T01:20:57.735Z,0.90
2022-08-20T01:21:09.862Z,1.00
2022-08-20T01:21:21.370Z,1.00
2022-08-20T01:21:32.782Z,0.90
2022-08-20T01:21:49.272Z,0.80
2022-08-20T01:22:04.901Z,0.75
2022-08-20T01:22:25.486Z,1.00
2022-08-20T01:22:45.982Z,1.30
2022-08-20T01:23:11.002Z,1.17
2022-08-20T01:23:32.445Z,1.00
2022-08-20T01:23:50.755Z,1.00
2022-08-20T01:24:28.334Z,0.90
2022-08-20T01:24:42.406Z,1.50
2022-08-20T01:25:03.537Z,1.38
2022-08-20T01:25:28.413Z,1.40
2022-08-20T01:26:04.197Z,1.17
2022-08-20T01:26:39.698Z,0.95
2022-08-20T01:26:51.684Z,1.25
2022-08-20T01:27:05.787Z,1.33
2022-08-20T01:27:21.751Z,1.38
2022-08-20T01:27:39.494Z,1.88
2022-08-20T01:27:55.529Z,1.77
2022-08-20T01:28:08.188Z,2.13
2022-08-20T01:28:26.566Z,2.60
2022-08-20T01:28:53.022Z,1.58
2022-08-20T01:29:13.292Z,0.90
2022-08-20T01:29:28.704Z,0.95
2022-08-20T01:29:41.744Z,0.90
2022-08-20T01:29:53.795Z,1.60
2022-08-20T01:30:11.534Z,2.00
2022-08-20T01:30:25.671Z,1.60
2022-08-20T01:30:37.895Z,1.00
2022-08-20T01:30:49.799Z,0.90
2022-08-20T01:31:01.307Z,1.10
2022-08-20T01:31:16.529Z,1.40
2022-08-20T01:31:35.089Z,1.52
2022-08-20T01:31:51.975Z,1.55
2022-08-20T01:32:05.993Z,1.02
2022-08-20T01:32:17.503Z,1.13
2022-08-20T01:32:29.407Z,1.13
2022-08-20T01:32:41.020Z,1.10
2022-08-20T01:32:52.572Z,1.05
2022-08-20T01:33:04.874Z,1.55
2022-08-20T01:33:18.881Z,1.48
2022-08-20T01:33:30.886Z,1.15
2022-08-20T01:33:44.127Z,1.13
2022-08-20T01:33:58.135Z,1.65
2022-08-20T01:34:19.994Z,2.13
2022-08-20T01:34:31.706Z,1.77
2022-08-20T01:34:43.200Z,1.48
2022-08-20T01:34:54.606Z,1.63
2022-08-20T01:35:09.074Z,1.70
2022-08-20T01:35:25.905Z,1.40
2022-08-20T01:35:39.726Z,1.38
2022-08-20T01:35:53.000Z,1.35
2022-08-20T01:36:05.506Z,1.17
2022-08-20T01:36:20.757Z,1.02
2022-08-20T01:36:48.555Z,1.00
2022-08-20T01:37:00.313Z,0.95
2022-08-20T01:37:11.715Z,1.20
2022-08-20T01:37:23.605Z,1.30
2022-08-20T01:37:42.896Z,0.85
2022-08-20T01:37:54.902Z,1.10
2022-08-20T01:38:07.677Z,1.20
2022-08-20T01:38:19.688Z,1.33
2022-08-20T01:38:32.083Z,1.13
2022-08-20T01:38:54.025Z,1.25
2022-08-20T01:39:09.265Z,1.10
2022-08-20T01:39:26.883Z,1.35
2022-08-20T01:39:38.375Z,1.38
2022-08-20T01:39:49.963Z,0.93
2022-08-20T01:40:04.490Z,0.80
2022-08-20T01:40:47.777Z,0.82
2022-08-20T01:41:17.690Z,0.90
2022-08-20T01:42:20.704Z,1.02
2022-08-20T01:42:58.793Z,0.73
2022-08-20T01:43:11.589Z,0.90
2022-08-20T01:43:25.430Z,0.93
2022-08-20T01:43:38.435Z,1.40
2022-08-20T01:43:51.481Z,1.60
2022-08-20T01:44:03.211Z,1.17
2022-08-20T01:44:17.014Z,0.90
2022-08-20T01:44:31.264Z,0.75
2022-08-20T01:44:45.614Z,0.80
2022-08-20T01:44:57.188Z,0.80
2022-08-20T01:45:08.833Z,1.15
2022-08-20T01:45:20.740Z,1.30
2022-08-20T01:45:38.572Z,1.00
2022-08-20T01:45:52.550Z,1.10
2022-08-20T01:46:04.852Z,1.20
2022-08-20T01:46:18.129Z,0.85
2022-08-20T01:46:36.711Z,0.77
2022-08-20T01:46:51.570Z,1.55
2022-08-20T01:47:36.461Z,1.73
2022-08-20T01:47:50.187Z,1.00
2022-08-20T01:48:02.671Z,1.05
2022-08-20T01:48:17.803Z,1.10
2022-08-20T01:48:30.572Z,1.13
2022-08-20T01:48:43.452Z,1.40
2022-08-20T01:48:56.934Z,1.42
2022-08-20T01:49:13.748Z,1.00
2022-08-20T01:49:32.296Z,0.70
2022-08-20T01:49:50.878Z,0.88
2022-08-20T01:50:24.860Z,1.00
2022-08-20T01:50:39.848Z,1.00
2022-08-20T01:51:04.194Z,1.13
2022-08-20T01:51:20.071Z,1.97
2022-08-20T01:51:31.615Z,1.75
2022-08-20T01:51:44.030Z,1.50
2022-08-20T01:51:59.742Z,1.35
2022-08-20T01:52:19.836Z,1.33
2022-08-20T01:52:41.316Z,1.50
2022-08-20T01:53:03.978Z,1.30
2022-08-20T01:53:24.600Z,1.80
2022-08-20T01:53:40.683Z,1.67
2022-08-20T01:53:55.445Z,1.63
2022-08-20T01:54:07.084Z,1.20
2022-08-20T01:54:19.285Z,1.25
2022-08-20T01:54:35.902Z,0.90
2022-08-20T01:54:47.405Z,0.75
2022-08-20T01:54:59.193Z,0.80
2022-08-20T01:55:10.947Z,0.70
2022-08-20T01:55:23.086Z,0.70
2022-08-20T01:55:42.517Z,1.13
2022-08-20T01:55:54.669Z,1.90
2022-08-20T01:56:09.784Z,1.88
2022-08-20T01:56:24.458Z,1.52
2022-08-20T01:56:36.391Z,1.23
2022-08-20T01:57:12.716Z,1.10
2022-08-20T01:57:25.859Z,1.05
2022-08-20T01:57:38.814Z,1.02
2022-08-20T01:57:50.480Z,0.93
2022-08-20T01:58:02.019Z,0.90
2022-08-20T01:58:13.666Z,0.82
2022-08-20T01:58:25.246Z,0.88
2022-08-20T01:58:41.408Z,0.98
2022-08-20T01:58:56.252Z,0.90
2022-08-20T01:59:10.446Z,1.00
2022-08-20T01:59:22.709Z,1.02
2022-08-20T01:59:34.108Z,1.10
2022-08-20T01:59:45.931Z,1.02
2022-08-20T01:59:57.449Z,0.95
2022-08-20T02:00:19.104Z,1.10
2022-08-20T02:00:32.582Z,1.05
2022-08-20T02:00:44.086Z,0.80
2022-08-20T02:00:57.406Z,0.80
2022-08-20T02:01:20.856Z,0.95
2022-08-20T02:01:32.272Z,1.10
2022-08-20T02:01:52.897Z,0.85
2022-08-20T02:02:04.762Z,0.73
2022-08-20T02:02:16.289Z,0.90
2022-08-20T02:02:28.508Z,0.88
2022-08-20T02:02:40.540Z,0.90
2022-08-20T02:02:52.304Z,0.93
2022-08-20T02:03:04.425Z,0.90
2022-08-20T02:03:16.185Z,0.95
2022-08-20T02:03:27.658Z,0.80
2022-08-20T02:03:44.381Z,0.73
2022-08-20T02:03:56.872Z,0.90
2022-08-20T02:04:15.394Z,1.10
2022-08-20T02:04:27.085Z,1.00
2022-08-20T02:04:39.180Z,0.80
2022-08-20T02:04:50.693Z,0.82
2022-08-20T02:05:02.083Z,0.90
2022-08-20T02:05:13.832Z,0.90
2022-08-20T02:05:25.234Z,0.90
2022-08-20T02:05:42.131Z,0.70
2022-08-20T02:05:53.619Z,0.80
2022-08-20T02:06:07.683Z,0.90
2022-08-20T02:06:20.995Z,0.88
2022-08-20T02:06:37.297Z,0.80
2022-08-20T02:06:56.117Z,0.80
2022-08-20T02:07:15.967Z,0.90
2022-08-20T02:07:27.766Z,0.80
2022-08-20T02:07:39.585Z,0.80
2022-08-20T02:07:51.615Z,0.90
2022-08-20T02:08:05.214Z,0.98
2022-08-20T02:08:16.607Z,0.80
2022-08-20T02:08:28.189Z,0.80
2022-08-20T02:08:39.614Z,1.02
2022-08-20T02:09:00.090Z,0.90
2022-08-20T02:09:15.928Z,0.60
2022-08-20T02:09:35.213Z,0.60
2022-08-20T02:09:48.016Z,0.80
2022-08-20T02:10:00.110Z,0.80
2022-08-20T02:10:13.996Z,0.88
2022-08-20T02:10:25.449Z,0.73
2022-08-20T02:10:36.952Z,0.70
2022-08-20T02:10:48.932Z,0.85
2022-08-20T02:11:00.327Z,1.05
2022-08-20T02:11:12.183Z,0.98
2022-08-20T02:11:24.393Z,0.90
2022-08-20T02:11:37.054Z,0.80
2022-08-20T02:11:49.271Z,0.63
2022-08-20T02:12:01.774Z,0.63
2022-08-20T02:12:13.330Z,0.70
2022-08-20T02:12:24.947Z,0.90
2022-08-20T02:12:36.439Z,0.93
2022-08-20T02:12:47.834Z,1.00
2022-08-20T02:13:00.652Z,1.02
2022-08-20T02:13:12.109Z,1.10
2022-08-20T02:13:57.223Z,0.85
2022-08-20T02:14:10.803Z,0.85
2022-08-20T02:14:22.242Z,0.82
2022-08-20T02:14:34.643Z,0.70
2022-08-20T02:14:51.029Z,0.65
2022-08-20T02:15:04.974Z,0.90
2022-08-20T02:15:16.840Z,0.90
2022-08-20T02:15:34.430Z,0.80
2022-08-20T02:15:46.681Z,0.90
2022-08-20T02:15:59.104Z,0.90
2022-08-20T02:16:10.525Z,0.80
2022-08-20T02:16:32.426Z,0.80
2022-08-20T02:16:54.653Z,1.20
2022-08-20T02:17:06.948Z,1.20
2022-08-20T02:17:21.380Z,0.98
2022-08-20T02:17:34.052Z,1.00
2022-08-20T02:17:45.481Z,1.00
2022-08-20T02:17:57.093Z,0.85
2022-08-20T02:18:12.933Z,0.70
2022-08-20T02:18:24.343Z,0.60
2022-08-20T02:18:35.869Z,0.68
2022-08-20T02:18:50.496Z,0.65
2022-08-20T02:19:07.764Z,0.60
2022-08-20T02:19:32.518Z,0.70
2022-08-20T02:19:48.780Z,0.70
2022-08-20T02:20:11.158Z,0.80
2022-08-20T02:20:28.535Z,0.80
2022-08-20T02:20:41.842Z,0.88
2022-08-20T02:20:54.058Z,0.95
2022-08-20T02:21:05.902Z,0.90
2022-08-20T02:21:17.909Z,0.85
2022-08-20T02:21:32.364Z,0.80
2022-08-20T02:21:47.351Z,1.00
2022-08-20T02:22:01.720Z,0.90
2022-08-20T02:22:53.622Z,0.77
2022-08-20T02:23:27.868Z,0.90
2022-08-20T02:23:39.277Z,1.00
2022-08-20T02:23:50.738Z,0.98
2022-08-20T02:24:02.258Z,0.85
2022-08-20T02:24:14.278Z,0.95
2022-08-20T02:24:28.524Z,0.98
2022-08-20T02:24:39.960Z,0.80
2022-08-20T02:24:51.509Z,0.65
2022-08-20T02:25:03.458Z,0.70
2022-08-20T02:25:16.343Z,0.75
2022-08-20T02:25:31.201Z,0.88
2022-08-20T02:25:45.354Z,0.88
2022-08-20T02:25:57.151Z,1.20
2022-08-20T02:26:08.812Z,1.38
2022-08-20T02:26:20.399Z,0.88
2022-08-20T02:26:31.946Z,0.90
2022-08-20T02:26:48.756Z,0.90
2022-08-20T02:27:02.691Z,0.93
2022-08-20T02:27:14.423Z,0.85
2022-08-20T02:27:25.862Z,0.70
2022-08-20T02:27:39.850Z,0.80
2022-08-20T02:27:52.848Z,0.80
2022-08-20T02:28:08.967Z,0.70
2022-08-20T02:28:20.510Z,0.77
2022-08-20T02:28:31.920Z,0.90
2022-08-20T02:28:43.380Z,0.90
2022-08-20T02:28:54.969Z,0.85
2022-08-20T02:29:09.032Z,0.75
2022-08-20T02:29:20.858Z,0.80
2022-08-20T02:29:32.357Z,0.80
2022-08-20T02:29:43.822Z,0.80
2022-08-20T02:29:55.691Z,0.80
2022-08-20T02:30:27.546Z,0.88
2022-08-20T02:30:43.686Z,0.63
2022-08-20T02:30:55.276Z,0.50
2022-08-20T02:31:06.847Z,0.60
2022-08-20T02:31:24.871Z,0.70
2022-08-20T02:31:37.200Z,0.63
2022-08-20T02:32:32.270Z,1.05
2022-08-20T02:32:42.020Z,0.80
2022-08-20T02:32:56.230Z,0.75
2022-08-20T02:33:11.180Z,0.88
2022-08-20T02:33:24.091Z,0.77
2022-08-20T02:33:35.963Z,0.70
2022-08-20T02:34:22.398Z,0.80
2022-08-20T02:34:23.133Z,0.50
2022-08-20T02:34:35.554Z,0.60
2022-08-20T02:34:46.985Z,0.70
2022-08-20T02:34:58.434Z,0.90
2022-08-20T02:35:17.991Z,0.90
2022-08-20T02:35:36.553Z,0.80
2022-08-20T02:35:50.137Z,0.60
2022-08-20T02:36:01.842Z,0.63
2022-08-20T02:36:14.785Z,0.65
2022-08-20T02:36:26.326Z,0.70
2022-08-20T02:36:39.391Z,0.90
2022-08-20T02:36:50.799Z,0.90
2022-08-20T02:37:03.680Z,0.88
2022-08-20T02:37:15.407Z,0.90
2022-08-20T02:37:26.800Z,0.90
2022-08-20T02:37:39.265Z,0.85
2022-08-20T02:37:50.870Z,0.70
2022-08-20T02:38:02.785Z,0.60
2022-08-20T02:38:14.860Z,0.65
2022-08-20T02:38:26.331Z,0.65
2022-08-20T02:38:40.233Z,0.77
2022-08-20T02:38:51.627Z,0.77
2022-08-20T02:39:08.267Z,0.90
2022-08-20T02:39:20.106Z,0.80
2022-08-20T02:39:32.255Z,0.80
2022-08-20T02:39:45.586Z,0.80
2022-08-20T02:39:57.219Z,0.80
2022-08-20T02:40:12.369Z,0.75
2022-08-20T02:40:27.361Z,0.80
2022-08-20T02:40:45.122Z,1.05
2022-08-20T02:40:56.568Z,0.98
2022-08-20T02:41:09.477Z,0.70
2022-08-20T02:41:21.294Z,0.73
2022-08-20T02:41:34.161Z,0.75
2022-08-20T02:41:46.597Z,0.68
2022-08-20T02:41:58.242Z,0.80
2022-08-20T02:42:09.667Z,0.90
2022-08-20T02:42:21.085Z,0.90
2022-08-20T02:42:32.511Z,0.85
2022-08-20T02:42:43.979Z,0.85
2022-08-20T02:43:09.275Z,0.73
2022-08-20T02:43:20.657Z,0.75
2022-08-20T02:43:32.077Z,0.70
2022-08-20T02:43:43.512Z,0.75
2022-08-20T02:43:54.963Z,0.95
2022-08-20T02:44:07.560Z,0.90
2022-08-20T02:44:19.142Z,0.65
2022-08-20T02:44:31.215Z,0.80
2022-08-20T02:44:45.741Z,0.85
2022-08-20T02:44:57.160Z,0.80
2022-08-20T02:45:36.906Z,0.98
2022-08-20T02:45:48.343Z,0.70
2022-08-20T02:46:06.592Z,0.70
2022-08-20T02:46:18.748Z,0.65
2022-08-20T02:46:30.547Z,0.85
2022-08-20T02:46:42.608Z,1.10
2022-08-20T02:46:57.460Z,1.10
2022-08-20T02:47:08.954Z,1.10
2022-08-20T02:47:20.407Z,0.75
2022-08-20T02:47:32.396Z,0.77
2022-08-20T02:47:45.883Z,0.70
2022-08-20T02:47:59.716Z,0.70
2022-08-20T02:48:17.344Z,0.60
2022-08-20T02:48:29.487Z,0.65
2022-08-20T02:48:41.672Z,0.98
2022-08-20T02:48:53.084Z,1.20
2022-08-20T02:49:04.603Z,1.15
2022-08-20T02:49:19.142Z,0.80
2022-08-20T02:49:30.567Z,0.70
2022-08-20T02:49:41.964Z,0.55
2022-08-20T02:49:54.585Z,0.57
2022-08-20T02:50:08.005Z,0.75
2022-08-20T02:50:20.752Z,0.80
2022-08-20T02:50:32.256Z,0.70
2022-08-20T02:50:44.045Z,0.70
2022-08-20T02:51:01.735Z,0.70
2022-08-20T02:51:14.279Z,0.80
2022-08-20T02:51:30.683Z,0.80
2022-08-20T02:51:42.201Z,0.80
2022-08-20T02:52:00.501Z,0.80
2022-08-20T02:52:11.970Z,0.93
2022-08-20T02:52:23.406Z,0.90
2022-08-20T02:52:34.821Z,0.70
2022-08-20T02:52:53.300Z,0.70
2022-08-20T02:53:04.737Z,0.70
2022-08-20T02:53:16.733Z,0.77
2022-08-20T02:53:30.946Z,0.85
2022-08-20T02:53:42.356Z,0.90
2022-08-20T02:53:53.880Z,0.90
2022-08-20T02:54:05.351Z,0.82
2022-08-20T02:54:16.831Z,0.80
2022-08-20T02:54:28.248Z,0.70
2022-08-20T02:54:39.856Z,0.68
2022-08-20T02:54:51.970Z,0.88
2022-08-20T02:55:03.837Z,1.08
2022-08-20T02:55:18.199Z,0.90
2022-08-20T02:55:38.489Z,0.80
2022-08-20T02:55:50.533Z,0.80
2022-08-20T02:56:02.132Z,0.85
2022-08-20T02:56:14.088Z,1.02
2022-08-20T02:56:25.619Z,1.15
2022-08-20T02:56:37.960Z,0.93
2022-08-20T02:56:49.389Z,0.90
2022-08-20T02:57:00.802Z,0.90
2022-08-20T02:57:17.661Z,1.00
2022-08-20T02:57:29.064Z,1.05
2022-08-20T02:57:42.002Z,0.95
2022-08-20T02:57:55.466Z,0.90
2022-08-20T02:58:10.556Z,1.00
2022-08-20T02:58:22.854Z,0.90
2022-08-20T02:58:34.297Z,0.80
2022-08-20T02:58:46.483Z,0.73
2022-08-20T02:58:57.919Z,0.90
2022-08-20T02:59:10.327Z,0.80
2022-08-20T02:59:25.214Z,0.80
2022-08-20T02:59:36.633Z,0.80
2022-08-20T02:59:49.306Z,0.90
2022-08-20T03:00:06.555Z,0.90
2022-08-20T03:00:20.154Z,0.80
2022-08-20T03:00:38.553Z,0.73
2022-08-20T03:00:50.957Z,0.90
2022-08-20T03:01:05.137Z,1.05
2022-08-20T03:01:17.389Z,1.08
2022-08-20T03:01:28.861Z,1.17
2022-08-20T03:01:40.351Z,1.17
2022-08-20T03:01:59.148Z,0.80
2022-08-20T03:02:13.154Z,0.65
2022-08-20T03:02:24.774Z,0.80
2022-08-20T03:02:36.172Z,0.95
2022-08-20T03:02:48.473Z,1.00
2022-08-20T03:03:00.961Z,1.08
2022-08-20T03:03:13.324Z,0.90
2022-08-20T03:03:25.104Z,1.00
2022-08-20T03:03:36.508Z,0.90
2022-08-20T03:03:47.927Z,0.90
2022-08-20T03:03:59.337Z,0.77
2022-08-20T03:04:10.770Z,0.70
2022-08-20T03:04:22.191Z,0.80
2022-08-20T03:04:37.764Z,1.00
2022-08-20T03:04:50.671Z,1.10
2022-08-20T03:05:05.452Z,0.93
2022-08-20T03:05:16.868Z,0.63
2022-08-20T03:05:28.321Z,0.60
2022-08-20T03:05:42.158Z,0.60
2022-08-20T03:05:58.058Z,0.70
2022-08-20T03:06:11.691Z,0.70
2022-08-20T03:06:23.103Z,0.68
2022-08-20T03:06:34.938Z,0.90
2022-08-20T03:06:46.441Z,1.00
2022-08-20T03:06:59.545Z,1.20
2022-08-20T03:07:14.300Z,1.00
2022-08-20T03:07:26.235Z,0.85
2022-08-20T03:07:46.516Z,0.80
2022-08-20T03:07:58.155Z,0.80
2022-08-20T03:08:12.942Z,0.88
2022-08-20T03:08:26.708Z,0.70
2022-08-20T03:08:38.885Z,0.80
2022-08-20T03:08:51.052Z,0.75
2022-08-20T03:09:03.539Z,0.73
2022-08-20T03:09:14.935Z,0.70
2022-08-20T03:09:26.673Z,0.70
2022-08-20T03:09:38.836Z,0.70
2022-08-20T03:09:50.223Z,0.80
2022-08-20T03:10:01.623Z,0.93
2022-08-20T03:10:13.718Z,0.90
2022-08-20T03:10:28.366Z,0.85
2022-08-20T03:10:42.384Z,0.80
2022-08-20T03:10:53.786Z,1.00
2022-08-20T03:11:06.105Z,0.90
2022-08-20T03:11:18.138Z,0.98
2022-08-20T03:11:29.560Z,1.05
2022-08-20T03:11:40.973Z,1.38
2022-08-20T03:11:52.395Z,1.20
2022-08-20T03:12:05.318Z,1.25
2022-08-20T03:12:16.737Z,1.17
2022-08-20T03:12:28.157Z,1.00
2022-08-20T03:12:39.534Z,1.00
2022-08-20T03:12:51.772Z,0.80
2022-08-20T03:13:04.563Z,0.75
2022-08-20T03:13:17.041Z,0.90
2022-08-20T03:13:28.501Z,1.13
2022-08-20T03:13:39.914Z,1.00
2022-08-20T03:13:51.357Z,0.95
2022-08-20T03:14:02.876Z,0.90
2022-08-20T03:14:14.580Z,0.70
2022-08-20T03:14:28.258Z,0.93
2022-08-20T03:14:40.168Z,1.33